METAR Data
IDs: Format: Raw Decoded Include TAF

Data at: 2036 UTC 25 Oct 2021

ESSB 252020Z AUTO 22007KT 9999 OVC026/// 08/04 Q1011